Time;durP1;ratioP1;P1;durP2;ratioP2;P2;SDS_P1;SDS_P2;PMS_P1;PMS_P2;Temp;Humidity;BMP_temperature;BMP_pressure;BME280_temperature;BME280_humidity;BME280_pressure;Samples;Min_cycle;Max_cycle;Signal;HPM_P1;HPM_P2
2024/02/12 00:01:03;;;;;;;31.83;30.17;;;;;;;;;;5066885;28;20072;-53
2024/02/12 00:03:31;;;;;;;31.20;29.60;;;;;;;;;;5062839;28;20127;-50
2024/02/12 00:05:57;;;;;;;32.83;31.13;;;;;;;;;;5067526;28;20122;-52
2024/02/12 00:08:22;;;;;;;31.25;29.65;;;;;;;;;;5067246;28;20163;-52
2024/02/12 00:10:48;;;;;;;35.35;33.55;;;;;;;;;;5069622;28;20097;-52
2024/02/12 00:13:13;;;;;;;34.55;32.75;;;;;;;;;;5066985;28;20036;-51
2024/02/12 00:15:39;;;;;;;35.40;33.40;;;;;;;;;;5063959;28;20029;-51
2024/02/12 00:18:05;;;;;;;35.05;33.10;;;;;;;;;;5069560;28;20048;-53
2024/02/12 00:20:31;;;;;;;34.33;32.53;;;;;;;;;;5066482;28;20020;-53
2024/02/12 00:22:57;;;;;;;38.47;36.47;;;;;;;;;;5067572;28;20076;-50
2024/02/12 00:25:24;;;;;;;36.30;34.35;;;;;;;;;;5065198;28;20028;-51
2024/02/12 00:27:50;;;;;;;36.17;34.30;;;;;;;;;;5067115;28;20047;-50
2024/02/12 00:30:15;;;;;;;32.63;30.92;;;;;;;;;;5067284;28;20025;-50
2024/02/12 00:32:43;;;;;;;39.10;37.10;;;;;;;;;;5062928;28;20064;-51
2024/02/12 00:35:10;;;;;;;40.03;37.92;;;;;;;;;;5067349;28;20039;-51
2024/02/12 00:37:36;;;;;;;38.38;36.38;;;;;;;;;;5064056;28;20036;-53
2024/02/12 00:40:09;;;;;;;39.20;37.10;;;;;;;;;;5065513;28;20051;-51
2024/02/12 00:42:38;;;;;;;37.83;35.92;;;;;;;;;;5064145;28;20043;-54
2024/02/12 00:45:10;;;;;;;39.65;37.58;;;;;;;;;;5066188;28;20040;-52
2024/02/12 00:47:36;;;;;;;38.00;36.00;;;;;;;;;;5067645;28;20078;-48
2024/02/12 00:50:05;;;;;;;42.42;40.25;;;;;;;;;;5062673;28;20040;-54
2024/02/12 00:52:35;;;;;;;37.85;35.85;;;;;;;;;;5063934;28;20047;-49
2024/02/12 00:55:02;;;;;;;41.70;39.53;;;;;;;;;;5064422;28;20044;-53
2024/02/12 00:57:27;;;;;;;39.20;37.20;;;;;;;;;;5065512;28;20465;-51
2024/02/12 00:59:53;;;;;;;41.03;38.85;;;;;;;;;;5065651;28;20055;-50
2024/02/12 01:02:18;;;;;;;39.85;37.78;;;;;;;;;;5068053;28;20020;-54
2024/02/12 01:04:43;;;;;;;42.67;40.50;;;;;;;;;;5064906;28;20029;-50
2024/02/12 01:07:09;;;;;;;40.35;38.25;;;;;;;;;;5066107;28;20029;-51
2024/02/12 01:09:34;;;;;;;39.60;37.55;;;;;;;;;;5066243;28;20182;-52
2024/02/12 01:12:00;;;;;;;39.38;37.38;;;;;;;;;;5063385;28;20470;-49
2024/02/12 01:14:28;;;;;;;41.80;39.65;;;;;;;;;;5063557;28;20055;-49
2024/02/12 01:16:55;;;;;;;45.15;42.85;;;;;;;;;;5065547;28;20036;-50
2024/02/12 01:19:20;;;;;;;39.47;37.47;;;;;;;;;;5067308;28;20024;-51
2024/02/12 01:21:46;;;;;;;39.90;37.83;;;;;;;;;;5063320;28;20472;-49
2024/02/12 01:24:14;;;;;;;41.50;39.40;;;;;;;;;;5066166;28;20442;-50
2024/02/12 01:26:40;;;;;;;41.03;38.92;;;;;;;;;;5063122;28;20378;-48
2024/02/12 01:29:06;;;;;;;39.85;37.83;;;;;;;;;;5062577;28;20110;-50
2024/02/12 01:31:31;;;;;;;40.25;38.20;;;;;;;;;;5066789;28;20036;-50
2024/02/12 01:33:57;;;;;;;39.10;37.10;;;;;;;;;;5065651;28;20043;-51
2024/02/12 01:36:22;;;;;;;39.53;37.50;;;;;;;;;;5064110;28;20104;-48
2024/02/12 01:38:47;;;;;;;41.28;39.08;;;;;;;;;;5063648;28;20071;-53
2024/02/12 01:41:15;;;;;;;43.70;41.47;;;;;;;;;;5065789;28;20072;-49
2024/02/12 01:43:41;;;;;;;42.25;40.05;;;;;;;;;;5062128;28;20265;-50
2024/02/12 01:46:07;;;;;;;40.92;37.72;;;;;;;;;;5067952;28;20036;-49
2024/02/12 01:48:35;;;;;;;36.17;34.28;;;;;;;;;;5063866;28;20024;-50
2024/02/12 01:51:06;;;;;;;40.83;38.72;;;;;;;;;;5062533;28;20043;-48
2024/02/12 01:53:39;;;;;;;39.70;37.67;;;;;;;;;;5062529;28;20044;-52
2024/02/12 01:56:06;;;;;;;39.20;37.17;;;;;;;;;;5060628;28;20028;-51
2024/02/12 01:58:33;;;;;;;38.50;36.45;;;;;;;;;;5061368;28;20108;-53
2024/02/12 02:00:58;;;;;;;40.20;38.15;;;;;;;;;;5062004;28;20040;-50
2024/02/12 02:03:25;;;;;;;38.92;36.92;;;;;;;;;;5062304;28;20052;-53
2024/02/12 02:05:52;;;;;;;39.85;37.80;;;;;;;;;;5063465;28;20132;-50
2024/02/12 02:08:18;;;;;;;39.67;37.65;;;;;;;;;;5066362;28;20036;-55
2024/02/12 02:10:48;;;;;;;37.90;35.97;;;;;;;;;;5062791;28;20029;-55
2024/02/12 02:13:15;;;;;;;37.10;35.20;;;;;;;;;;5063270;28;20057;-54
2024/02/12 02:15:42;;;;;;;37.15;35.25;;;;;;;;;;5063598;28;20050;-52
2024/02/12 02:18:07;;;;;;;38.88;36.70;;;;;;;;;;5063260;28;20032;-54
2024/02/12 02:20:35;;;;;;;38.60;36.63;;;;;;;;;;5065049;28;20032;-51
2024/02/12 02:23:00;;;;;;;38.20;36.22;;;;;;;;;;5067983;28;20036;-54
2024/02/12 02:25:26;;;;;;;38.15;36.08;;;;;;;;;;5063741;28;20035;-50
2024/02/12 02:27:51;;;;;;;37.55;35.65;;;;;;;;;;5065762;28;20335;-52
2024/02/12 02:30:19;;;;;;;36.92;35.03;;;;;;;;;;5067820;28;20024;-52
2024/02/12 02:32:44;;;;;;;35.25;33.33;;;;;;;;;;5062302;28;20098;-51
2024/02/12 02:35:09;;;;;;;36.85;34.95;;;;;;;;;;5062617;28;20761;-53
2024/02/12 02:37:36;;;;;;;38.97;36.97;;;;;;;;;;5061622;28;20050;-51
2024/02/12 02:40:04;;;;;;;40.65;38.45;;;;;;;;;;5065576;28;20064;-52
2024/02/12 02:42:31;;;;;;;38.92;36.92;;;;;;;;;;5063606;28;20037;-52
2024/02/12 02:44:56;;;;;;;40.20;38.15;;;;;;;;;;5064921;28;20037;-55
2024/02/12 02:47:21;;;;;;;41.22;39.13;;;;;;;;;;5061775;28;20190;-52
2024/02/12 02:49:47;;;;;;;43.90;41.70;;;;;;;;;;5062835;28;20488;-55
2024/02/12 02:52:12;;;;;;;42.42;40.25;;;;;;;;;;5063319;28;20354;-51
2024/02/12 02:54:38;;;;;;;43.42;41.17;;;;;;;;;;5066511;28;20040;-52
2024/02/12 02:57:03;;;;;;;45.38;43.08;;;;;;;;;;5064111;28;20709;-51
2024/02/12 02:59:30;;;;;;;43.42;41.22;;;;;;;;;;5062122;28;20040;-51
2024/02/12 03:01:56;;;;;;;43.63;41.42;;;;;;;;;;5063890;28;20163;-51
2024/02/12 03:04:21;;;;;;;44.53;42.28;;;;;;;;;;5065738;28;20110;-54
2024/02/12 03:06:47;;;;;;;42.78;40.58;;;;;;;;;;5063881;28;20042;-52
2024/02/12 03:09:13;;;;;;;43.75;41.55;;;;;;;;;;5064824;28;20037;-51
2024/02/12 03:11:39;;;;;;;43.42;41.22;;;;;;;;;;5069995;28;21151;-48
2024/02/12 03:14:06;;;;;;;41.83;39.72;;;;;;;;;;5066262;28;20044;-53
2024/02/12 03:16:32;;;;;;;42.80;40.60;;;;;;;;;;5066085;28;20029;-50
2024/02/12 03:18:59;;;;;;;44.53;42.03;;;;;;;;;;5069257;28;20358;-52
2024/02/12 03:21:24;;;;;;;42.60;40.40;;;;;;;;;;5068708;28;20075;-50
2024/02/12 03:23:49;;;;;;;44.90;42.60;;;;;;;;;;5065847;28;20095;-50
2024/02/12 03:26:16;;;;;;;42.08;39.90;;;;;;;;;;5066561;28;20476;-51
2024/02/12 03:28:41;;;;;;;41.72;39.63;;;;;;;;;;5067102;28;20032;-52
2024/02/12 03:31:07;;;;;;;43.67;41.47;;;;;;;;;;5065287;28;20024;-51
2024/02/12 03:33:33;;;;;;;45.00;42.70;;;;;;;;;;5071719;28;20029;-53
2024/02/12 03:35:59;;;;;;;43.72;41.50;;;;;;;;;;5064709;28;20039;-53
2024/02/12 03:38:24;;;;;;;40.50;38.40;;;;;;;;;;5051945;28;20036;-55
2024/02/12 03:40:51;;;;;;;39.65;37.58;;;;;;;;;;5064443;28;20109;-54
2024/02/12 03:43:17;;;;;;;38.88;36.88;;;;;;;;;;5067775;28;20118;-54
2024/02/12 03:45:44;;;;;;;39.40;37.40;;;;;;;;;;5067611;28;20181;-52
2024/02/12 03:59:50;;;;;;;43.75;41.53;;;;;;;;;;5068009;28;20123;-50
2024/02/12 04:02:01;;;;;;;45.35;43.05;;;;;;;;;;5062974;28;20040;-49
2024/02/12 04:04:26;;;;;;;49.58;47.08;;;;;;;;;;5059769;28;20104;-50
2024/02/12 04:06:52;;;;;;;47.65;45.25;;;;;;;;;;5069036;28;20048;-49
2024/02/12 04:09:18;;;;;;;48.08;45.67;;;;;;;;;;5065407;28;20731;-52
2024/02/12 04:11:43;;;;;;;48.13;45.72;;;;;;;;;;5067000;28;20029;-53
2024/02/12 04:14:09;;;;;;;45.20;42.90;;;;;;;;;;5064086;28;20449;-52
2024/02/12 04:16:36;;;;;;;46.90;44.53;;;;;;;;;;5067549;28;20033;-53
2024/02/12 04:19:03;;;;;;;46.95;44.55;;;;;;;;;;5061522;28;20037;-56
2024/02/12 04:21:31;;;;;;;44.67;42.38;;;;;;;;;;5065173;28;20032;-50
2024/02/12 04:23:57;;;;;;;43.45;41.25;;;;;;;;;;5066099;28;20147;-53
2024/02/12 04:26:23;;;;;;;43.80;41.60;;;;;;;;;;5066214;28;20036;-51
2024/02/12 04:28:49;;;;;;;44.90;42.60;;;;;;;;;;5066305;28;20036;-51
2024/02/12 04:31:14;;;;;;;46.38;44.00;;;;;;;;;;5066414;28;20044;-52
2024/02/12 04:33:40;;;;;;;42.67;40.47;;;;;;;;;;5065218;28;20036;-50
2024/02/12 04:36:08;;;;;;;45.22;42.92;;;;;;;;;;5062624;28;20048;-52
2024/02/12 04:38:34;;;;;;;43.50;41.30;;;;;;;;;;5067299;28;20040;-53
2024/02/12 04:41:00;;;;;;;43.70;41.50;;;;;;;;;;5064762;28;20642;-51
2024/02/12 04:43:25;;;;;;;42.40;40.20;;;;;;;;;;5065112;28;20374;-52
2024/02/12 04:45:54;;;;;;;42.20;40.05;;;;;;;;;;5064166;28;20583;-53
2024/02/12 04:48:21;;;;;;;46.35;44.00;;;;;;;;;;5064219;28;20478;-52
2024/02/12 04:50:46;;;;;;;43.17;40.97;;;;;;;;;;5068411;28;20036;-54
2024/02/12 04:53:12;;;;;;;43.30;41.10;;;;;;;;;;5064451;28;20024;-52
2024/02/12 04:55:37;;;;;;;43.13;40.92;;;;;;;;;;5061061;28;20462;-54
2024/02/12 04:58:04;;;;;;;42.40;40.20;;;;;;;;;;5061348;28;20127;-54
2024/02/12 05:00:30;;;;;;;44.95;42.65;;;;;;;;;;5064742;28;20044;-52
2024/02/12 05:02:57;;;;;;;42.22;40.05;;;;;;;;;;5067078;28;20036;-50
2024/02/12 05:05:22;;;;;;;43.15;40.95;;;;;;;;;;5063316;28;20035;-50
2024/02/12 05:07:48;;;;;;;42.80;40.63;;;;;;;;;;5065352;28;20207;-54
2024/02/12 05:10:13;;;;;;;43.10;40.90;;;;;;;;;;5063507;28;20028;-53
2024/02/12 05:12:38;;;;;;;41.58;39.47;;;;;;;;;;5066166;28;20034;-49
2024/02/12 05:15:06;;;;;;;48.67;46.20;;;;;;;;;;5064380;28;20031;-54
2024/02/12 05:22:59;;;;;;;46.65;44.28;;;;;;;;;;5064046;28;20047;-54
2024/02/12 05:25:25;;;;;;;44.35;42.10;;;;;;;;;;5063072;28;20059;-52
2024/02/12 05:27:50;;;;;;;45.80;43.47;;;;;;;;;;5059882;28;20425;-51
2024/02/12 05:30:15;;;;;;;46.85;44.47;;;;;;;;;;5065757;28;20040;-49
2024/02/12 05:32:41;;;;;;;49.13;46.63;;;;;;;;;;5063183;28;20032;-53
2024/02/12 05:35:06;;;;;;;47.70;45.28;;;;;;;;;;5064058;28;20032;-53
2024/02/12 05:37:33;;;;;;;51.33;48.72;;;;;;;;;;5063257;28;20056;-49
2024/02/12 05:39:59;;;;;;;50.33;47.78;;;;;;;;;;5069133;28;20422;-50
2024/02/12 05:42:25;;;;;;;57.47;54.58;;;;;;;;;;5050770;28;20209;-54
2024/02/12 05:44:50;;;;;;;49.45;46.95;;;;;;;;;;5065188;28;20040;-53
2024/02/12 05:47:15;;;;;;;49.72;47.20;;;;;;;;;;5065370;28;20829;-51
2024/02/12 05:49:41;;;;;;;50.55;48.00;;;;;;;;;;5062802;28;20033;-49
2024/02/12 05:52:06;;;;;;;46.55;44.20;;;;;;;;;;5064397;28;20056;-53
2024/02/12 05:54:32;;;;;;;48.58;46.10;;;;;;;;;;5065600;28;20177;-53
2024/02/12 05:56:57;;;;;;;54.55;51.83;;;;;;;;;;5065140;28;20747;-50
2024/02/12 05:59:23;;;;;;;49.42;46.90;;;;;;;;;;5062047;28;20366;-52
2024/02/12 06:01:48;;;;;;;50.45;47.90;;;;;;;;;;5062168;28;20037;-52
2024/02/12 06:04:13;;;;;;;53.65;50.95;;;;;;;;;;5060110;28;20531;-49
2024/02/12 06:06:39;;;;;;;50.17;47.65;;;;;;;;;;5059521;28;20086;-50
2024/02/12 06:09:05;;;;;;;50.63;48.05;;;;;;;;;;5062749;28;20121;-52
2024/02/12 06:11:31;;;;;;;51.08;48.47;;;;;;;;;;5062901;28;20028;-50
2024/02/12 06:13:57;;;;;;;50.22;47.67;;;;;;;;;;5049046;28;20106;-52
2024/02/12 06:16:23;;;;;;;48.85;46.38;;;;;;;;;;5059362;28;20091;-52
2024/02/12 06:18:48;;;;;;;49.47;46.97;;;;;;;;;;5059122;28;20040;-63
2024/02/12 06:21:13;;;;;;;48.95;46.45;;;;;;;;;;5062277;28;20101;-64
2024/02/12 06:23:39;;;;;;;52.25;49.58;;;;;;;;;;5059541;28;20108;-63
2024/02/12 06:26:04;;;;;;;50.17;47.67;;;;;;;;;;5060739;28;20040;-51
2024/02/12 06:28:30;;;;;;;43.80;41.58;;;;;;;;;;5062722;28;20107;-50
2024/02/12 06:30:56;;;;;;;49.85;47.35;;;;;;;;;;5059582;28;20595;-52
2024/02/12 06:33:21;;;;;;;49.88;47.38;;;;;;;;;;5061500;28;20040;-51
2024/02/12 06:35:46;;;;;;;50.10;47.60;;;;;;;;;;5060094;28;20059;-51
2024/02/12 06:38:12;;;;;;;48.72;46.25;;;;;;;;;;5060315;28;20067;-49
2024/02/12 06:40:37;;;;;;;51.83;48.63;;;;;;;;;;5064605;28;20510;-49
2024/02/12 06:43:04;;;;;;;48.78;46.30;;;;;;;;;;5066461;28;20106;-52
2024/02/12 06:45:31;;;;;;;44.05;41.75;;;;;;;;;;5066815;28;20033;-49
2024/02/12 06:47:57;;;;;;;45.03;42.67;;;;;;;;;;5066083;28;20056;-50
2024/02/12 06:50:23;;;;;;;45.88;43.53;;;;;;;;;;5069728;28;20141;-50
2024/02/12 06:52:48;;;;;;;42.40;40.22;;;;;;;;;;5065012;28;20028;-49
2024/02/12 06:55:15;;;;;;;46.30;43.90;;;;;;;;;;5066825;28;20047;-48
2024/02/12 06:57:41;;;;;;;42.20;40.05;;;;;;;;;;5066173;28;20058;-53
2024/02/12 07:00:07;;;;;;;37.92;35.97;;;;;;;;;;5070814;28;20108;-50
2024/02/12 07:02:35;;;;;;;34.10;32.20;;;;;;;;;;5067118;28;20115;-52
2024/02/12 07:05:04;;;;;;;37.05;35.13;;;;;;;;;;5066811;28;20458;-51
2024/02/12 07:07:30;;;;;;;30.80;29.20;;;;;;;;;;5068523;28;20358;-49
2024/02/12 07:09:57;;;;;;;31.10;29.48;;;;;;;;;;5066814;28;20032;-49
2024/02/12 07:12:22;;;;;;;29.50;27.98;;;;;;;;;;5062120;28;20453;-53
2024/02/12 07:14:47;;;;;;;31.58;29.90;;;;;;;;;;5071336;28;20089;-51
2024/02/12 07:17:13;;;;;;;31.05;29.45;;;;;;;;;;5064081;28;20032;-54
2024/02/12 07:19:45;;;;;;;26.80;25.40;;;;;;;;;;5067342;28;20063;-52
2024/02/12 07:22:10;;;;;;;31.40;29.63;;;;;;;;;;5068593;28;20454;-53
2024/02/12 07:24:36;;;;;;;28.98;27.40;;;;;;;;;;5063387;28;20033;-53
2024/02/12 07:27:02;;;;;;;27.23;25.80;;;;;;;;;;5066826;28;20029;-52
2024/02/12 07:29:28;;;;;;;26.83;25.42;;;;;;;;;;5059920;28;20066;-52
2024/02/12 07:31:53;;;;;;;29.17;27.52;;;;;;;;;;5069047;28;20032;-49
2024/02/12 07:34:18;;;;;;;27.00;25.60;;;;;;;;;;5063230;28;20477;-52
2024/02/12 07:36:44;;;;;;;24.75;23.45;;;;;;;;;;5066413;28;20028;-52
2024/02/12 07:39:09;;;;;;;24.02;22.73;;;;;;;;;;5065296;28;20037;-48
2024/02/12 07:41:42;;;;;;;24.48;23.17;;;;;;;;;;5065620;28;20689;-53
2024/02/12 07:44:10;;;;;;;23.38;22.08;;;;;;;;;;5064707;28;20036;-52
2024/02/12 07:46:38;;;;;;;27.13;25.70;;;;;;;;;;5063612;28;20036;-51
2024/02/12 07:49:05;;;;;;;24.48;23.15;;;;;;;;;;5061770;28;20040;-53
2024/02/12 07:51:31;;;;;;;28.05;26.42;;;;;;;;;;5063223;28;20508;-49
2024/02/12 07:53:57;;;;;;;24.75;23.45;;;;;;;;;;5063772;28;20043;-51
2024/02/12 07:56:23;;;;;;;27.05;25.65;;;;;;;;;;5065972;28;20092;-50
2024/02/12 07:58:48;;;;;;;27.95;26.45;;;;;;;;;;5064496;28;20043;-50
2024/02/12 08:01:14;;;;;;;31.17;29.55;;;;;;;;;;5066400;28;20041;-53
2024/02/12 08:03:39;;;;;;;31.17;29.58;;;;;;;;;;5063515;28;20044;-50
2024/02/12 08:06:05;;;;;;;30.67;29.08;;;;;;;;;;5067242;28;20040;-51
2024/02/12 08:08:30;;;;;;;31.23;29.52;;;;;;;;;;5064559;28;20033;-47
2024/02/12 08:10:55;;;;;;;31.42;29.75;;;;;;;;;;5064344;28;20036;-49
2024/02/12 08:13:21;;;;;;;29.25;27.65;;;;;;;;;;5066835;28;20400;-52
2024/02/12 08:15:48;;;;;;;32.03;30.33;;;;;;;;;;5063268;28;20033;-52
2024/02/12 08:18:13;;;;;;;33.28;31.58;;;;;;;;;;5065831;28;20036;-52
2024/02/12 08:20:38;;;;;;;34.00;32.20;;;;;;;;;;5065032;28;20036;-53
2024/02/12 08:23:04;;;;;;;34.67;32.85;;;;;;;;;;5063215;28;20071;-51
2024/02/12 08:25:29;;;;;;;31.48;29.73;;;;;;;;;;5065843;28;20120;-49
2024/02/12 08:27:55;;;;;;;28.05;26.55;;;;;;;;;;5060543;28;20074;-50
2024/02/12 08:30:21;;;;;;;29.45;27.85;;;;;;;;;;5063682;28;20047;-48
2024/02/12 08:32:46;;;;;;;26.90;25.42;;;;;;;;;;5067237;28;20171;-48
2024/02/12 08:35:12;;;;;;;28.08;26.58;;;;;;;;;;5064962;28;20116;-49
2024/02/12 08:37:40;;;;;;;26.88;25.45;;;;;;;;;;5061716;28;20224;-49
2024/02/12 08:40:16;;;;;;;26.17;24.77;;;;;;;;;;5061788;28;20047;-49
2024/02/12 08:42:45;;;;;;;25.13;23.65;;;;;;;;;;5061009;28;20044;-49
2024/02/12 08:45:11;;;;;;;22.60;21.30;;;;;;;;;;5063916;28;20098;-48
2024/02/12 08:47:40;;;;;;;21.15;19.95;;;;;;;;;;5065332;28;20097;-51
2024/02/12 08:50:07;;;;;;;21.85;20.65;;;;;;;;;;5062608;28;20480;-49
2024/02/12 08:52:32;;;;;;;22.27;20.35;;;;;;;;;;5063870;28;20100;-50
2024/02/12 08:55:01;;;;;;;22.48;21.25;;;;;;;;;;5064529;28;20036;-50
2024/02/12 08:57:27;;;;;;;23.63;22.38;;;;;;;;;;5063428;28;20605;-52
2024/02/12 08:59:52;;;;;;;22.58;21.27;;;;;;;;;;5062585;28;20036;-50
2024/02/12 09:02:18;;;;;;;23.52;22.23;;;;;;;;;;5064746;28;20399;-51
2024/02/12 09:04:44;;;;;;;26.88;24.60;;;;;;;;;;5061274;28;20112;-52
2024/02/12 09:07:11;;;;;;;24.80;23.45;;;;;;;;;;5063542;28;20115;-51
2024/02/12 09:09:37;;;;;;;25.10;23.70;;;;;;;;;;5067248;28;20060;-51
2024/02/12 09:12:02;;;;;;;24.23;22.90;;;;;;;;;;5060798;28;20492;-51
2024/02/12 09:14:28;;;;;;;26.60;25.20;;;;;;;;;;5064638;28;20131;-48
2024/02/12 09:16:53;;;;;;;28.83;27.02;;;;;;;;;;5059898;28;20033;-49
2024/02/12 09:19:18;;;;;;;28.35;26.85;;;;;;;;;;5062309;28;20100;-51
2024/02/12 09:21:44;;;;;;;22.30;21.10;;;;;;;;;;5061681;28;20135;-48
2024/02/12 09:24:10;;;;;;;20.58;19.48;;;;;;;;;;5064816;28;20040;-51
2024/02/12 09:26:36;;;;;;;22.17;20.95;;;;;;;;;;5064075;28;20572;-50
2024/02/12 09:29:01;;;;;;;23.52;22.20;;;;;;;;;;5061074;28;20040;-51
2024/02/12 09:31:27;;;;;;;22.27;21.02;;;;;;;;;;5060972;28;20111;-49
2024/02/12 09:33:54;;;;;;;23.42;22.13;;;;;;;;;;5059726;28;20041;-47
2024/02/12 09:36:19;;;;;;;25.17;23.83;;;;;;;;;;5061052;28;20024;-47
2024/02/12 09:38:45;;;;;;;23.08;21.80;;;;;;;;;;5062358;28;20074;-50
2024/02/12 09:41:14;;;;;;;23.98;22.67;;;;;;;;;;5058943;28;20739;-49
2024/02/12 09:43:44;;;;;;;26.37;24.97;;;;;;;;;;5061242;28;20053;-49
2024/02/12 09:46:13;;;;;;;24.50;23.15;;;;;;;;;;5058130;28;20676;-48
2024/02/12 09:48:39;;;;;;;26.17;24.77;;;;;;;;;;5060729;28;20044;-47
2024/02/12 09:51:05;;;;;;;27.77;26.30;;;;;;;;;;5056025;28;20040;-49
2024/02/12 09:53:33;;;;;;;26.85;25.35;;;;;;;;;;5063037;28;20037;-52
2024/02/12 09:56:00;;;;;;;27.60;26.10;;;;;;;;;;5060578;28;20411;-49
2024/02/12 09:58:25;;;;;;;29.90;28.30;;;;;;;;;;5061037;28;20040;-51
2024/02/12 10:00:51;;;;;;;26.80;25.40;;;;;;;;;;5066332;28;20086;-47
2024/02/12 10:03:16;;;;;;;29.42;27.73;;;;;;;;;;5060901;28;20034;-50
2024/02/12 10:05:43;;;;;;;28.83;27.25;;;;;;;;;;5058894;28;20185;-47
2024/02/12 10:08:24;;;;;;;29.50;27.83;;;;;;;;;;5064693;28;20475;-48
2024/02/12 10:10:51;;;;;;;27.25;25.80;;;;;;;;;;5062843;28;20047;-49
2024/02/12 10:13:16;;;;;;;31.92;29.52;;;;;;;;;;5061086;28;20047;-48
2024/02/12 10:15:43;;;;;;;29.33;27.77;;;;;;;;;;5063323;28;20097;-48
2024/02/12 10:18:10;;;;;;;30.60;28.95;;;;;;;;;;5060948;28;21286;-47
2024/02/12 10:20:39;;;;;;;28.73;27.23;;;;;;;;;;5059007;28;20037;-50
2024/02/12 10:23:04;;;;;;;28.30;26.80;;;;;;;;;;5061956;28;20580;-50
2024/02/12 10:25:30;;;;;;;29.10;27.50;;;;;;;;;;5062739;28;20044;-48
2024/02/12 10:27:55;;;;;;;26.95;25.45;;;;;;;;;;5061304;28;20156;-49
2024/02/12 10:30:21;;;;;;;30.50;28.60;;;;;;;;;;5063145;28;20045;-51
2024/02/12 10:32:49;;;;;;;27.17;25.77;;;;;;;;;;5064954;28;20055;-50
2024/02/12 10:35:15;;;;;;;27.30;25.80;;;;;;;;;;5060215;28;20066;-50
2024/02/12 10:37:41;;;;;;;28.25;26.75;;;;;;;;;;5062430;28;20572;-48
2024/02/12 10:40:12;;;;;;;29.10;27.58;;;;;;;;;;5059424;28;20082;-51
2024/02/12 10:42:48;;;;;;;27.20;25.80;;;;;;;;;;5058781;28;20147;-52
2024/02/12 10:45:15;;;;;;;27.70;26.25;;;;;;;;;;5061220;28;20043;-53
2024/02/12 10:47:40;;;;;;;26.08;24.63;;;;;;;;;;5065682;28;20040;-49
2024/02/12 10:50:07;;;;;;;28.65;27.15;;;;;;;;;;5066481;28;20408;-51
2024/02/12 10:52:36;;;;;;;26.60;25.00;;;;;;;;;;5065386;28;20044;-50
2024/02/12 10:55:02;;;;;;;30.13;28.52;;;;;;;;;;5060932;28;20029;-49
2024/02/12 10:57:29;;;;;;;29.38;27.80;;;;;;;;;;5057503;28;20025;-50
2024/02/12 11:00:01;;;;;;;27.35;25.95;;;;;;;;;;5064285;28;20028;-50
2024/02/12 11:02:26;;;;;;;28.35;26.85;;;;;;;;;;5063178;28;20119;-51
2024/02/12 11:04:55;;;;;;;29.65;28.05;;;;;;;;;;5063116;28;20103;-49
2024/02/12 11:07:24;;;;;;;27.95;26.45;;;;;;;;;;5059059;28;20178;-54
2024/02/12 11:10:18;;;;;;;31.08;29.15;;;;;;;;;;5063121;28;20047;-50
2024/02/12 11:12:47;;;;;;;26.67;25.17;;;;;;;;;;5059435;28;20048;-49
2024/02/12 11:15:19;;;;;;;25.95;24.55;;;;;;;;;;5062049;28;20112;-52
2024/02/12 11:17:45;;;;;;;27.40;25.90;;;;;;;;;;5064691;28;20427;-49
2024/02/12 11:20:21;;;;;;;31.20;29.58;;;;;;;;;;5063832;28;20041;-48
2024/02/12 11:22:48;;;;;;;28.42;26.92;;;;;;;;;;5061630;28;20383;-48
2024/02/12 11:25:23;;;;;;;28.70;27.10;;;;;;;;;;5063746;28;21108;-51
2024/02/12 11:27:53;;;;;;;34.53;32.10;;;;;;;;;;5063364;28;20133;-50
2024/02/12 11:30:19;;;;;;;34.55;32.72;;;;;;;;;;5068205;28;20426;-50
2024/02/12 11:32:46;;;;;;;32.20;30.50;;;;;;;;;;5064690;28;20539;-49
2024/02/12 11:35:13;;;;;;;32.70;31.00;;;;;;;;;;5061838;28;20045;-48
2024/02/12 11:38:02;;;;;;;26.95;25.50;;;;;;;;;;5066173;28;20036;-48
2024/02/12 11:40:27;;;;;;;29.85;28.25;;;;;;;;;;5063560;28;20036;-48
2024/02/12 11:42:53;;;;;;;28.63;27.13;;;;;;;;;;5065638;28;20028;-52
2024/02/12 11:45:25;;;;;;;26.40;25.00;;;;;;;;;;5064519;28;20028;-51
2024/02/12 11:47:51;;;;;;;26.65;25.25;;;;;;;;;;5066851;28;20123;-48
2024/02/12 11:50:24;;;;;;;27.30;25.88;;;;;;;;;;5063282;28;20902;-48
2024/02/12 11:52:50;;;;;;;28.35;26.85;;;;;;;;;;5063038;28;20117;-51
2024/02/12 11:55:16;;;;;;;28.33;26.83;;;;;;;;;;5063101;28;20048;-51
2024/02/12 11:57:41;;;;;;;28.50;27.00;;;;;;;;;;5064527;28;20036;-49
2024/02/12 12:00:16;;;;;;;25.67;24.27;;;;;;;;;;5067797;28;20111;-53
2024/02/12 12:02:48;;;;;;;28.70;27.20;;;;;;;;;;5065636;28;20110;-51
2024/02/12 12:05:16;;;;;;;26.30;24.90;;;;;;;;;;5064461;28;20052;-53
2024/02/12 12:07:42;;;;;;;32.35;30.65;;;;;;;;;;5062906;28;20462;-51
2024/02/12 12:10:10;;;;;;;35.60;33.72;;;;;;;;;;5063252;28;20051;-51
2024/02/12 12:12:41;;;;;;;37.78;35.72;;;;;;;;;;5062235;28;20155;-51
2024/02/12 12:15:09;;;;;;;40.42;38.33;;;;;;;;;;5061805;28;20033;-52
2024/02/12 12:17:35;;;;;;;39.60;37.60;;;;;;;;;;5066461;28;20040;-54
2024/02/12 12:20:01;;;;;;;37.70;35.72;;;;;;;;;;5065887;28;20044;-51
2024/02/12 12:22:27;;;;;;;34.88;33.03;;;;;;;;;;5062405;28;20047;-50
2024/02/12 12:24:54;;;;;;;28.42;26.92;;;;;;;;;;5065038;28;20040;-50
2024/02/12 12:27:23;;;;;;;28.65;27.10;;;;;;;;;;5066561;28;20055;-52
2024/02/12 12:29:51;;;;;;;25.98;24.58;;;;;;;;;;5062623;28;20060;-53
2024/02/12 12:32:17;;;;;;;24.63;23.33;;;;;;;;;;5064721;28;20029;-53
2024/02/12 12:34:42;;;;;;;31.45;29.83;;;;;;;;;;5064580;28;20057;-52
2024/02/12 12:37:07;;;;;;;24.83;23.50;;;;;;;;;;5066470;28;20032;-53
2024/02/12 12:39:33;;;;;;;25.65;24.25;;;;;;;;;;5064274;28;20032;-50
2024/02/12 12:41:58;;;;;;;24.17;22.88;;;;;;;;;;5060981;28;20058;-50
2024/02/12 12:44:26;;;;;;;23.58;22.05;;;;;;;;;;5066766;28;20040;-52
2024/02/12 12:46:52;;;;;;;22.05;20.85;;;;;;;;;;5065219;28;20037;-53
2024/02/12 12:49:17;;;;;;;26.98;25.05;;;;;;;;;;5067042;28;20051;-50
2024/02/12 12:51:42;;;;;;;23.10;21.85;;;;;;;;;;5063243;28;20052;-48
2024/02/12 12:54:08;;;;;;;22.38;21.17;;;;;;;;;;5062845;28;20096;-49
2024/02/12 12:56:33;;;;;;;21.52;20.33;;;;;;;;;;5064895;28;20055;-47
2024/02/12 12:58:59;;;;;;;23.20;21.90;;;;;;;;;;5062556;28;20533;-47
2024/02/12 13:01:24;;;;;;;27.63;26.05;;;;;;;;;;5064721;28;20075;-49
2024/02/12 13:03:50;;;;;;;24.70;23.40;;;;;;;;;;5061639;28;20438;-51
2024/02/12 13:06:17;;;;;;;22.65;21.45;;;;;;;;;;5067643;28;20044;-53
2024/02/12 13:08:45;;;;;;;23.75;22.45;;;;;;;;;;5062640;28;20151;-51
2024/02/12 13:11:12;;;;;;;22.45;21.25;;;;;;;;;;5064974;28;20028;-54
2024/02/12 13:13:38;;;;;;;27.60;26.13;;;;;;;;;;5062847;28;20494;-53
2024/02/12 13:16:05;;;;;;;25.35;24.02;;;;;;;;;;5059655;28;20072;-53
2024/02/12 13:18:30;;;;;;;22.67;21.48;;;;;;;;;;5059602;28;20097;-53
2024/02/12 13:20:56;;;;;;;23.73;22.42;;;;;;;;;;5066759;28;20040;-51
2024/02/12 13:23:22;;;;;;;24.20;22.80;;;;;;;;;;5064451;28;20052;-50
2024/02/12 13:25:48;;;;;;;22.35;21.15;;;;;;;;;;5064288;28;20064;-52
2024/02/12 13:28:15;;;;;;;22.30;20.80;;;;;;;;;;5061424;28;20673;-51
2024/02/12 13:30:43;;;;;;;24.05;22.75;;;;;;;;;;5061676;28;20040;-52
2024/02/12 13:33:09;;;;;;;24.25;22.92;;;;;;;;;;5063064;28;20028;-52
2024/02/12 13:35:39;;;;;;;26.10;24.70;;;;;;;;;;5060002;28;20032;-48
2024/02/12 13:38:05;;;;;;;23.07;21.77;;;;;;;;;;5066303;28;20028;-50
2024/02/12 13:40:30;;;;;;;23.88;21.75;;;;;;;;;;5063013;28;20336;-49
2024/02/12 13:42:56;;;;;;;25.40;24.05;;;;;;;;;;5062450;28;20415;-47
2024/02/12 13:45:22;;;;;;;23.20;21.90;;;;;;;;;;5061966;28;20635;-48
2024/02/12 13:47:48;;;;;;;20.95;19.75;;;;;;;;;;5060434;28;20044;-47
2024/02/12 13:50:14;;;;;;;23.60;22.30;;;;;;;;;;5057931;28;20679;-52
2024/02/12 13:52:40;;;;;;;23.08;21.67;;;;;;;;;;5062086;28;20040;-50
2024/02/12 13:55:13;;;;;;;22.33;21.13;;;;;;;;;;5061969;28;20032;-50
2024/02/12 13:57:39;;;;;;;28.02;26.52;;;;;;;;;;5066511;28;20063;-49
2024/02/12 14:00:07;;;;;;;22.80;21.60;;;;;;;;;;5064738;28;20135;-50
2024/02/12 14:02:33;;;;;;;30.40;28.80;;;;;;;;;;5059601;28;20123;-48
2024/02/12 14:05:00;;;;;;;21.90;20.70;;;;;;;;;;5059902;28;20617;-52
2024/02/12 14:07:29;;;;;;;21.67;20.48;;;;;;;;;;5060103;28;20549;-53
2024/02/12 14:09:56;;;;;;;25.67;24.27;;;;;;;;;;5058548;28;20060;-49
2024/02/12 14:12:22;;;;;;;21.90;20.70;;;;;;;;;;5059150;28;20110;-49
2024/02/12 14:14:47;;;;;;;24.45;22.73;;;;;;;;;;5061722;28;20579;-50
2024/02/12 14:17:13;;;;;;;30.02;28.42;;;;;;;;;;5060664;28;20071;-48
2024/02/12 14:19:43;;;;;;;31.63;29.92;;;;;;;;;;5059185;28;20032;-49
2024/02/12 14:22:09;;;;;;;31.25;29.55;;;;;;;;;;5060896;28;20425;-50
2024/02/12 14:24:34;;;;;;;31.45;29.75;;;;;;;;;;5063101;28;20455;-49
2024/02/12 14:27:00;;;;;;;26.98;25.58;;;;;;;;;;5060814;28;20461;-50
2024/02/12 14:29:25;;;;;;;30.83;29.23;;;;;;;;;;5053811;28;20051;-49